Terminal Aerodrome Forecast
Issued by NWS

Home | Current Version | Previous Version | Text Only | Print | Product List | Glossary On
Versions: 1 2 3 4 5 6 7 8 9 10 11 12 13 14 15 16 17
909
FTUS46 KLOX 090244 AAA
TAFOXR
TAF AMD
KOXR 090244Z 0903/0924 07012KT P6SM SKC
     FM091300 07012G22KT P6SM SKC
     FM092100 28006KT P6SM FEW010=

USA.gov is the U.S. government's official web portal to all federal, state and local government web resources and services.